Terminal Aerodrome Forecast
Issued by NWS

Home | Current Version | Previous Version | Text Only | Print | Product List | Glossary On
Versions: 1 2 3 4 5 6 7 8 9 10 11 12 13 14 15 16 17 18 19 20 21 22 23 24 25 26 27 28 29 30 31 32 33 34
000
FTUS43 KSGF 271306 AAC
TAFBBG
TAF AMD
KBBG 271306Z 2713/2812 11006KT 5SM -SHRA BR BKN003 BKN030
     FM271400 15005KT P6SM VCSH BKN030
     FM271600 22005KT P6SM VCSH BKN025
     FM271800 27006KT P6SM BKN030
     FM272100 30008KT P6SM BKN020
     FM280500 VRB03KT 5SM BR BKN015
     FM281000 35004KT 3SM BR BKN008=

USA.gov is the U.S. government's official web portal to all federal, state and local government web resources and services.